MSSS/SAL METAR and TAF weather

Enter ICAO airport designator
Station Type Date Time Source
MSSS METAR 2019/10/14 04:50 UTC NOAA

MSSS 140450Z 36006KT 9999 BKN031 21/21 Q1013 A2994


Station Type Date Time Source
MSSS Decoded METAR 2019/10/14 04:50 UTC NOAA

San Salvador / Ilopango, El Salvador (MSSS) 13-42N 089-07W 621M
Oct 14, 2019 - 12:50 AM EDT / 2019.10.14 0450 UTC
Wind: from the N (360 degrees) at 7 MPH (6 KT):0
Visibility: greater than 7 mile(s):0
Sky conditions: mostly cloudy
Temperature: 69 F (21 C)
Dew Point: 69 F (21 C)
Relative Humidity: 100%
Pressure (altimeter): 29.94 in. Hg (1013 hPa)
ob: MSSS 140450Z 36006KT 9999 BKN031 21/21 Q1013 A2994
cycle: 5

Station Type Date Time Source
MSSS TAF 2019/10/14 06:49 UTC NOAA

TAF MSSS 140325Z 1406/1506 00000KT 6000 RA SCT010 BKN033 TX27/1420Z TN20/1412Z
TEMPO 1410/1412 3000 BR BKN007
FM141200 36006KT 7000 BKN010
FM141800 12004KT 9999 BKN013
BECMG 1420/1422 5000 RA

Example: see airport list